createdAt,value
2018-12-08T00:01:36.450Z,8.77
2018-12-08T00:06:39.637Z,8.60
2018-12-08T00:11:42.855Z,10.40
2018-12-08T00:16:46.963Z,3.93
2018-12-08T00:21:50.187Z,12.37
2018-12-08T00:26:53.482Z,4.50
2018-12-08T00:31:56.698Z,8.13
2018-12-08T00:36:59.892Z,10.80
2018-12-08T00:42:03.248Z,10.43
2018-12-08T00:47:06.529Z,6.50
2018-12-08T00:52:09.805Z,6.63
2018-12-08T00:57:12.990Z,7.60
2018-12-08T01:02:16.190Z,7.67
2018-12-08T01:07:19.454Z,13.30
2018-12-08T01:12:22.731Z,10.10
2018-12-08T01:17:26.006Z,11.70
2018-12-08T01:22:29.215Z,16.20
2018-12-08T01:27:32.430Z,15.93
2018-12-08T01:32:35.623Z,13.57
2018-12-08T01:37:38.908Z,10.47
2018-12-08T01:42:45.590Z,9.17
2018-12-08T01:47:48.790Z,14.73
2018-12-08T01:52:52.105Z,8.67
2018-12-08T01:57:55.411Z,15.83
2018-12-08T02:02:58.654Z,27.40
2018-12-08T02:08:02.317Z,11.10
2018-12-08T02:13:06.214Z,12.80
2018-12-08T02:18:09.406Z,12.40
2018-12-08T02:23:12.680Z,16.03
2018-12-08T02:28:16.047Z,10.60
2018-12-08T02:33:19.285Z,18.00
2018-12-08T02:38:22.594Z,6.80
2018-12-08T02:43:25.908Z,10.63
2018-12-08T02:48:29.215Z,15.37
2018-12-08T02:53:32.418Z,13.40
2018-12-08T02:58:35.703Z,15.20
2018-12-08T03:03:39.097Z,11.47
2018-12-08T03:08:42.377Z,13.53
2018-12-08T03:13:45.689Z,17.73
2018-12-08T03:18:48.910Z,11.13
2018-12-08T03:23:52.133Z,13.27
2018-12-08T03:28:55.453Z,18.00
2018-12-08T03:33:58.721Z,9.10
2018-12-08T03:39:02.446Z,9.30
2018-12-08T03:44:05.649Z,19.27
2018-12-08T03:49:08.928Z,12.37
2018-12-08T03:54:12.118Z,21.17
2018-12-08T03:59:15.996Z,11.13
2018-12-08T04:04:19.170Z,15.20
2018-12-08T04:09:22.456Z,9.83
2018-12-08T04:14:25.946Z,13.67
2018-12-08T04:19:29.150Z,14.17
2018-12-08T04:24:32.452Z,11.63
2018-12-08T04:29:35.665Z,8.93
2018-12-08T04:34:38.968Z,10.10
2018-12-08T04:39:42.247Z,17.53
2018-12-08T04:44:45.934Z,8.20
2018-12-08T04:49:49.200Z,11.13
2018-12-08T04:54:52.569Z,9.40
2018-12-08T04:59:55.786Z,13.17
2018-12-08T05:04:59.021Z,13.80
2018-12-08T05:10:02.230Z,19.40
2018-12-08T05:15:05.867Z,13.77
2018-12-08T05:20:09.262Z,12.43
2018-12-08T05:25:12.467Z,15.60
2018-12-08T05:30:15.885Z,9.43
2018-12-08T05:35:19.172Z,5.63
2018-12-08T05:40:23.362Z,7.87
2018-12-08T05:45:26.603Z,9.40
2018-12-08T05:50:29.796Z,12.23
2018-12-08T05:55:32.990Z,14.83
2018-12-08T06:00:37.374Z,6.40
2018-12-08T06:05:41.609Z,15.17
2018-12-08T06:10:44.802Z,5.60
2018-12-08T06:15:48.018Z,8.27
2018-12-08T06:20:51.576Z,9.07
2018-12-08T06:25:56.082Z,7.57
2018-12-08T06:30:59.309Z,11.17
2018-12-08T06:36:02.622Z,11.63
2018-12-08T06:41:05.926Z,6.93
2018-12-08T06:46:09.142Z,7.70
2018-12-08T06:51:12.353Z,4.93
2018-12-08T06:56:15.570Z,7.93
2018-12-08T07:01:18.775Z,5.47
2018-12-08T07:06:21.982Z,8.17
2018-12-08T07:11:25.173Z,7.63
2018-12-08T07:16:28.476Z,15.97
2018-12-08T07:21:31.857Z,13.50
2018-12-08T07:26:35.057Z,6.63
2018-12-08T07:31:38.246Z,3.57
2018-12-08T07:36:41.638Z,5.90
2018-12-08T07:41:44.974Z,7.80
2018-12-08T07:46:48.167Z,9.33
2018-12-08T07:51:51.582Z,5.67
2018-12-08T07:56:54.782Z,5.90
2018-12-08T08:01:57.978Z,6.97
2018-12-08T08:07:01.194Z,6.83
2018-12-08T08:12:04.588Z,5.13
2018-12-08T08:17:08.538Z,8.13
2018-12-08T08:22:11.933Z,8.80
2018-12-08T08:27:15.122Z,7.53
2018-12-08T08:37:46.998Z,6.37
2018-12-08T08:42:50.376Z,8.90
2018-12-08T08:47:53.577Z,3.60
2018-12-08T08:52:56.768Z,4.10
2018-12-08T08:58:00.078Z,3.10
2018-12-08T09:03:03.318Z,2.90
2018-12-08T09:08:06.508Z,7.23
2018-12-08T09:13:10.166Z,2.27
2018-12-08T09:18:13.455Z,1.30
2018-12-08T09:23:16.750Z,1.73
2018-12-08T09:28:19.966Z,5.07
2018-12-08T09:33:23.173Z,3.00
2018-12-08T09:38:26.381Z,2.17
2018-12-08T09:43:29.602Z,3.87
2018-12-08T09:48:32.840Z,6.60
2018-12-08T09:53:36.075Z,11.00
2018-12-08T09:58:39.387Z,9.07
2018-12-08T10:03:42.569Z,9.10
2018-12-08T10:08:46.109Z,8.27
2018-12-08T10:13:49.352Z,10.03
2018-12-08T10:18:52.581Z,5.70
2018-12-08T10:23:55.874Z,10.00
2018-12-08T10:28:59.172Z,5.77
2018-12-08T10:34:02.402Z,15.03
2018-12-08T10:39:08.062Z,11.67
2018-12-08T10:44:11.286Z,11.57
2018-12-08T10:49:14.637Z,12.87
2018-12-08T10:54:17.990Z,4.17
2018-12-08T10:59:21.206Z,10.50
2018-12-08T11:04:24.475Z,4.53
2018-12-08T11:09:27.905Z,7.57
2018-12-08T11:14:31.230Z,9.63
2018-12-08T11:19:35.425Z,19.93
2018-12-08T11:24:38.806Z,5.93
2018-12-08T11:29:42.014Z,7.07
2018-12-08T11:34:45.214Z,12.40
2018-12-08T11:39:48.421Z,8.63
2018-12-08T11:44:51.953Z,9.33
2018-12-08T11:49:56.204Z,18.50
2018-12-08T11:54:59.406Z,7.83
2018-12-08T12:00:02.629Z,10.87
2018-12-08T12:05:08.329Z,9.50
2018-12-08T12:10:11.738Z,10.60
2018-12-08T12:15:14.937Z,14.77
2018-12-08T12:20:18.146Z,19.30
2018-12-08T12:25:21.922Z,14.73
2018-12-08T12:30:25.374Z,15.63
2018-12-08T12:35:28.601Z,12.20
2018-12-08T12:40:31.850Z,15.83
2018-12-08T12:45:35.120Z,19.80
2018-12-08T12:50:38.441Z,17.43
2018-12-08T12:55:41.650Z,14.60
2018-12-08T13:00:45.003Z,17.27
2018-12-08T13:05:48.215Z,20.53
2018-12-08T13:10:51.430Z,20.77
2018-12-08T13:15:54.644Z,16.37
2018-12-08T13:20:57.938Z,13.70
2018-12-08T13:26:01.250Z,16.00
2018-12-08T13:31:04.642Z,17.37
2018-12-08T13:36:09.717Z,14.27
2018-12-08T13:41:12.921Z,19.63
2018-12-08T13:46:16.145Z,20.07
2018-12-08T13:51:19.766Z,20.47
2018-12-08T13:56:22.978Z,12.37
2018-12-08T14:01:26.358Z,19.80
2018-12-08T14:06:31.743Z,17.10
2018-12-08T14:11:35.982Z,13.47
2018-12-08T14:16:39.494Z,15.67
2018-12-08T14:21:42.734Z,20.67
2018-12-08T14:26:45.975Z,9.60
2018-12-08T14:31:49.571Z,16.57
2018-12-08T14:36:52.782Z,21.27
2018-12-08T14:41:57.018Z,10.47
2018-12-08T14:47:00.234Z,10.53
2018-12-08T14:52:03.539Z,14.23
2018-12-08T14:57:06.838Z,19.57
2018-12-08T15:02:10.075Z,16.13
2018-12-08T15:07:13.271Z,19.87
2018-12-08T15:12:16.582Z,14.23
2018-12-08T15:17:22.785Z,12.13
2018-12-08T15:22:26.007Z,16.30
2018-12-08T15:27:29.226Z,14.60
2018-12-08T15:32:32.438Z,18.37
2018-12-08T15:37:35.990Z,8.73
2018-12-08T15:42:39.693Z,18.63
2018-12-08T15:47:42.939Z,12.23
2018-12-08T15:52:46.238Z,23.60
2018-12-08T15:57:50.668Z,13.97
2018-12-08T16:02:53.876Z,14.60
2018-12-08T16:07:57.078Z,14.53
2018-12-08T16:13:00.294Z,22.53
2018-12-08T16:18:03.510Z,13.80
2018-12-08T16:23:06.830Z,15.93
2018-12-08T16:28:10.037Z,20.90
2018-12-08T16:33:13.231Z,10.17
2018-12-08T16:38:16.454Z,18.43
2018-12-08T16:43:19.681Z,20.77
2018-12-08T16:48:23.853Z,17.40
2018-12-08T16:53:27.065Z,27.83
2018-12-08T16:58:30.269Z,15.03
2018-12-08T17:03:33.586Z,19.77
2018-12-08T17:08:36.909Z,26.07
2018-12-08T17:13:41.621Z,18.67
2018-12-08T17:18:44.934Z,25.17
2018-12-08T17:23:48.141Z,19.60
2018-12-08T17:28:51.417Z,23.57
2018-12-08T17:33:54.620Z,19.77
2018-12-08T17:38:57.818Z,19.13
2018-12-08T17:44:01.017Z,11.23
2018-12-08T17:49:04.305Z,28.33
2018-12-08T17:54:07.805Z,27.87
2018-12-08T17:59:11.094Z,21.60
2018-12-08T18:04:14.482Z,21.40
2018-12-08T18:09:17.673Z,26.23
2018-12-08T18:14:20.862Z,19.77
2018-12-08T18:19:24.227Z,14.30
2018-12-08T18:24:27.497Z,26.30
2018-12-08T18:29:30.818Z,26.70
2018-12-08T18:34:34.223Z,24.93
2018-12-08T18:39:37.500Z,27.10
2018-12-08T18:44:40.710Z,22.20
2018-12-08T18:49:43.930Z,25.37
2018-12-08T18:54:47.153Z,27.33
2018-12-08T18:59:50.434Z,20.53
2018-12-08T19:04:53.753Z,14.40
2018-12-08T19:09:57.046Z,16.70
2018-12-08T19:15:00.246Z,20.07
2018-12-08T19:20:03.634Z,12.50
2018-12-08T19:25:07.410Z,18.13
2018-12-08T19:30:10.909Z,7.53
2018-12-08T19:35:15.638Z,18.60
2018-12-08T19:40:18.843Z,8.67
2018-12-08T19:45:22.158Z,5.60
2018-12-08T19:50:25.362Z,13.10
2018-12-08T19:55:28.570Z,5.50
2018-12-08T20:00:31.784Z,4.73
2018-12-08T20:05:35.106Z,2.33
2018-12-08T20:10:39.510Z,2.63
2018-12-08T20:15:42.822Z,6.83
2018-12-08T20:20:46.035Z,4.87
2018-12-08T20:25:49.842Z,3.87
2018-12-08T20:30:53.044Z,1.47
2018-12-08T20:35:56.246Z,1.60
2018-12-08T20:41:00.754Z,1.20
2018-12-08T20:46:04.625Z,1.27
2018-12-08T20:51:07.929Z,1.43
2018-12-08T20:56:11.237Z,2.10
2018-12-08T21:01:14.461Z,2.47
2018-12-08T21:06:17.649Z,2.90
2018-12-08T21:11:20.860Z,1.47
2018-12-08T21:16:24.075Z,1.13
2018-12-08T21:21:27.371Z,4.30
2018-12-08T21:26:30.847Z,1.07
2018-12-08T21:31:34.050Z,0.80
2018-12-08T21:36:37.638Z,0.80
2018-12-08T21:41:40.862Z,1.00
2018-12-08T21:46:44.062Z,1.73
2018-12-08T21:51:47.283Z,9.90
2018-12-08T21:56:50.505Z,1.60
2018-12-08T22:01:53.905Z,1.30
2018-12-08T22:06:57.162Z,1.83
2018-12-08T22:12:00.374Z,1.10
2018-12-08T22:17:03.601Z,0.90
2018-12-08T22:22:06.891Z,3.33
2018-12-08T22:27:10.093Z,1.00
2018-12-08T22:32:13.309Z,2.90
2018-12-08T22:37:17.061Z,1.37
2018-12-08T22:42:20.277Z,1.80
2018-12-08T22:47:23.490Z,4.20
2018-12-08T22:52:27.086Z,2.13
2018-12-08T22:57:30.305Z,6.23
2018-12-08T23:02:33.610Z,7.80
2018-12-08T23:07:36.914Z,8.37
2018-12-08T23:12:40.102Z,18.30
2018-12-08T23:17:43.539Z,7.80
2018-12-08T23:22:47.033Z,7.27
2018-12-08T23:27:50.301Z,12.20
2018-12-08T23:32:53.589Z,12.17
2018-12-08T23:37:56.823Z,7.97
2018-12-08T23:43:00.019Z,13.13
2018-12-08T23:48:03.345Z,5.30
2018-12-08T23:53:06.566Z,10.53
2018-12-08T23:58:09.797Z,10.10
